createdAt,value
2023-03-29T00:02:05.509Z,-0.44
2023-03-29T00:04:34.367Z,-0.45
2023-03-29T00:07:04.797Z,-0.46
2023-03-29T00:09:33.480Z,-0.55
2023-03-29T00:12:01.409Z,-0.62
2023-03-29T00:14:30.692Z,-0.66
2023-03-29T00:16:58.766Z,-0.68
2023-03-29T00:19:25.977Z,-0.64
2023-03-29T00:21:52.879Z,-0.61
2023-03-29T00:24:21.364Z,-0.64
2023-03-29T00:26:48.626Z,-0.64
2023-03-29T00:29:15.684Z,-0.62
2023-03-29T00:31:44.523Z,-0.65
2023-03-29T00:34:11.724Z,-0.62
2023-03-29T00:36:40.536Z,-0.59
2023-03-29T00:39:07.482Z,-0.53
2023-03-29T00:41:34.666Z,-0.46
2023-03-29T00:44:04.210Z,-0.42
2023-03-29T00:46:32.422Z,-0.39
2023-03-29T00:49:07.250Z,-0.38
2023-03-29T00:51:38.578Z,-0.39
2023-03-29T00:54:14.944Z,-0.39
2023-03-29T00:56:47.550Z,-0.37
2023-03-29T00:59:19.715Z,-0.32
2023-03-29T01:01:50.537Z,-0.26
2023-03-29T01:04:29.608Z,-0.20
2023-03-29T01:07:06.875Z,-0.11
2023-03-29T01:09:38.999Z,-0.06
2023-03-29T01:12:20.953Z,-0.01
2023-03-29T01:14:59.603Z,-0.10
2023-03-29T01:17:26.921Z,-0.20
2023-03-29T01:20:02.195Z,-0.24
2023-03-29T01:22:44.564Z,-0.29
2023-03-29T01:25:32.203Z,-0.37
2023-03-29T01:28:20.318Z,-0.47
2023-03-29T01:30:54.127Z,-0.54
2023-03-29T01:33:30.374Z,-0.56
2023-03-29T01:36:04.750Z,-0.53
2023-03-29T01:38:39.485Z,-0.53
2023-03-29T01:41:07.895Z,-0.54
2023-03-29T01:43:47.091Z,-0.58
2023-03-29T01:46:13.818Z,-0.62
2023-03-29T01:48:56.936Z,-0.69
2023-03-29T01:51:55.044Z,-0.80
2023-03-29T01:54:43.522Z,-0.91
2023-03-29T01:57:11.925Z,-1.05
2023-03-29T01:59:42.828Z,-1.12
2023-03-29T02:02:14.918Z,-1.20
2023-03-29T02:04:51.121Z,-1.23
2023-03-29T02:07:22.527Z,-1.24
2023-03-29T02:09:52.674Z,-1.27
2023-03-29T02:12:20.679Z,-1.27
2023-03-29T02:14:47.570Z,-1.24
2023-03-29T02:17:23.671Z,-1.19
2023-03-29T02:19:58.134Z,-1.16
2023-03-29T02:22:30.766Z,-1.11
2023-03-29T02:25:01.863Z,-1.01
2023-03-29T02:27:30.006Z,-0.87
2023-03-29T02:29:58.345Z,-0.73
2023-03-29T02:32:57.522Z,-0.59
2023-03-29T02:35:35.184Z,-0.44
2023-03-29T02:38:09.237Z,-0.34
2023-03-29T02:40:39.047Z,-0.26
2023-03-29T02:43:08.441Z,-0.17
2023-03-29T02:45:39.047Z,-0.11
2023-03-29T02:48:10.561Z,-0.05
2023-03-29T02:50:39.814Z,0.03
2023-03-29T02:53:32.437Z,0.07
2023-03-29T02:56:02.286Z,0.10
2023-03-29T02:58:29.666Z,0.15
2023-03-29T03:00:59.971Z,0.17
2023-03-29T03:03:27.524Z,0.19
2023-03-29T03:05:54.975Z,0.18
2023-03-29T03:08:21.839Z,0.16
2023-03-29T03:10:48.759Z,0.10
2023-03-29T03:13:15.565Z,0.07
2023-03-29T03:15:43.108Z,0.01
2023-03-29T03:18:10.710Z,-0.00
2023-03-29T03:20:37.687Z,-0.03
2023-03-29T03:23:04.510Z,-0.05
2023-03-29T03:25:32.459Z,-0.08
2023-03-29T03:27:59.493Z,-0.10
2023-03-29T03:30:26.374Z,-0.11
2023-03-29T03:33:11.774Z,-0.17
2023-03-29T03:35:46.516Z,-0.16
2023-03-29T03:38:15.305Z,-0.19
2023-03-29T03:40:43.476Z,-0.22
2023-03-29T03:43:10.402Z,-0.24
2023-03-29T03:45:38.615Z,-0.27
2023-03-29T03:48:15.055Z,-0.27
2023-03-29T03:50:55.387Z,-0.26
2023-03-29T03:53:23.644Z,-0.26
2023-03-29T03:56:09.335Z,-0.28
2023-03-29T03:58:51.743Z,-0.31
2023-03-29T04:01:19.701Z,-0.30
2023-03-29T04:03:58.078Z,-0.30
2023-03-29T04:06:25.533Z,-0.29
2023-03-29T04:09:12.976Z,-0.31
2023-03-29T04:11:43.121Z,-0.34
2023-03-29T04:14:11.345Z,-0.39
2023-03-29T04:16:58.391Z,-0.47
2023-03-29T04:19:57.711Z,-0.54
2023-03-29T04:22:26.923Z,-0.58
2023-03-29T04:24:53.966Z,-0.64
2023-03-29T04:27:45.523Z,-0.69
2023-03-29T04:30:23.872Z,-0.73
2023-03-29T04:33:08.973Z,-0.76
2023-03-29T04:35:37.792Z,-0.80
2023-03-29T04:38:10.079Z,-0.79
2023-03-29T04:40:38.387Z,-0.77
2023-03-29T04:43:39.703Z,-0.76
2023-03-29T04:46:26.968Z,-0.73
2023-03-29T04:49:09.162Z,-0.65
2023-03-29T04:51:39.960Z,-0.46
2023-03-29T04:54:06.827Z,-0.29
2023-03-29T04:56:52.722Z,-0.09
2023-03-29T04:59:55.088Z,0.10
2023-03-29T05:02:44.273Z,0.29
2023-03-29T05:05:12.922Z,0.37
2023-03-29T05:07:41.091Z,0.39
2023-03-29T05:10:09.762Z,0.58
2023-03-29T05:12:36.920Z,0.71
2023-03-29T05:15:08.330Z,0.82
2023-03-29T05:17:35.716Z,0.96
2023-03-29T05:20:12.889Z,1.12
2023-03-29T05:22:42.164Z,1.36
2023-03-29T05:25:13.372Z,1.55
2023-03-29T05:27:42.628Z,1.71
2023-03-29T05:30:11.647Z,1.81
2023-03-29T05:33:11.550Z,1.91
2023-03-29T05:35:39.123Z,1.83
2023-03-29T05:38:08.926Z,1.80
2023-03-29T05:40:36.098Z,1.81
2023-03-29T05:43:41.065Z,1.91
2023-03-29T05:46:08.079Z,2.01
2023-03-29T05:48:37.342Z,2.07
2023-03-29T05:51:05.256Z,2.13
2023-03-29T05:53:32.340Z,2.22
2023-03-29T05:55:59.751Z,2.25
2023-03-29T05:58:28.691Z,2.36
2023-03-29T06:00:55.655Z,2.44
2023-03-29T06:03:42.806Z,2.54
2023-03-29T06:06:10.390Z,2.61
2023-03-29T06:08:37.693Z,2.76
2023-03-29T06:11:19.683Z,2.74
2023-03-29T06:14:06.684Z,3.00
2023-03-29T06:16:36.461Z,3.21
2023-03-29T06:19:03.501Z,3.46
2023-03-29T06:21:31.793Z,3.62
2023-03-29T06:23:59.836Z,3.92
2023-03-29T06:26:33.604Z,4.06
2023-03-29T06:29:00.609Z,4.03
2023-03-29T06:31:27.936Z,4.14
2023-03-29T06:33:55.652Z,4.28
2023-03-29T06:36:51.038Z,4.34
2023-03-29T06:39:20.475Z,4.53
2023-03-29T06:41:53.227Z,4.57
2023-03-29T06:44:54.804Z,5.02
2023-03-29T06:47:29.262Z,5.47
2023-03-29T06:49:56.358Z,5.81
2023-03-29T06:52:39.399Z,5.89
2023-03-29T06:55:07.880Z,5.77
2023-03-29T06:57:36.200Z,5.84
2023-03-29T07:00:23.408Z,5.96
2023-03-29T07:03:06.595Z,6.50
2023-03-29T07:05:36.553Z,7.65
2023-03-29T07:08:07.920Z,8.91
2023-03-29T07:11:01.499Z,9.37
2023-03-29T07:13:33.102Z,9.57
2023-03-29T07:16:03.184Z,9.34
2023-03-29T07:18:48.624Z,9.27
2023-03-29T07:21:37.391Z,9.23
2023-03-29T07:24:06.777Z,9.12
2023-03-29T07:26:35.793Z,9.04
2023-03-29T07:29:03.552Z,8.72
2023-03-29T07:31:31.923Z,8.28
2023-03-29T07:34:18.739Z,7.81
2023-03-29T07:36:45.600Z,7.52
2023-03-29T07:39:15.786Z,7.12
2023-03-29T07:41:51.614Z,6.83
2023-03-29T07:44:19.385Z,6.45
2023-03-29T07:46:46.319Z,6.19
2023-03-29T07:49:13.204Z,5.93
2023-03-29T07:51:40.109Z,5.61
2023-03-29T07:54:10.815Z,5.34
2023-03-29T07:56:48.125Z,5.16
2023-03-29T07:59:15.377Z,5.00
2023-03-29T08:01:44.719Z,4.87
2023-03-29T08:04:25.391Z,4.79
2023-03-29T08:07:11.140Z,4.73
2023-03-29T08:10:04.517Z,4.68
2023-03-29T08:12:52.376Z,4.74
2023-03-29T08:15:25.298Z,4.76
2023-03-29T08:17:52.223Z,4.87
2023-03-29T08:20:19.285Z,5.06
2023-03-29T08:22:49.339Z,5.27
2023-03-29T08:25:16.871Z,5.45
2023-03-29T08:27:48.079Z,5.55
2023-03-29T08:30:22.341Z,5.57
2023-03-29T08:32:52.926Z,5.78
2023-03-29T08:35:21.383Z,5.95
2023-03-29T08:38:03.715Z,6.09
2023-03-29T09:18:13.339Z,8.04
2023-03-29T09:20:53.444Z,8.08
2023-03-29T09:23:40.139Z,8.19
2023-03-29T09:26:30.058Z,8.44
2023-03-29T09:29:45.311Z,8.67
2023-03-29T09:32:25.126Z,8.96
2023-03-29T09:35:18.745Z,9.23
2023-03-29T09:37:49.231Z,9.52
2023-03-29T09:40:22.207Z,9.70
2023-03-29T09:43:02.398Z,9.86
2023-03-29T09:45:30.052Z,9.90
2023-03-29T09:48:03.504Z,10.00
2023-03-29T09:50:37.156Z,10.05
2023-03-29T09:53:08.032Z,10.15
2023-03-29T09:55:40.241Z,10.31
2023-03-29T09:58:44.369Z,10.50
2023-03-29T10:01:15.686Z,10.63
2023-03-29T10:03:47.934Z,10.66
2023-03-29T10:06:17.796Z,10.74
2023-03-29T10:08:59.113Z,10.72
2023-03-29T10:11:38.372Z,10.77
2023-03-29T10:14:17.759Z,10.74
2023-03-29T10:16:46.356Z,10.77
2023-03-29T10:19:36.225Z,10.88
2023-03-29T10:22:23.009Z,10.93
2023-03-29T10:24:52.328Z,10.80
2023-03-29T10:27:24.925Z,10.74
2023-03-29T10:29:52.335Z,10.77
2023-03-29T10:32:22.860Z,10.82
2023-03-29T10:34:51.996Z,10.78
2023-03-29T10:37:21.313Z,10.81
2023-03-29T10:39:50.353Z,10.94
2023-03-29T10:42:20.538Z,11.07
2023-03-29T10:45:19.047Z,11.24
2023-03-29T10:47:48.131Z,11.43
2023-03-29T10:50:16.082Z,11.60
2023-03-29T10:52:43.238Z,11.78
2023-03-29T10:55:13.734Z,11.96
2023-03-29T10:57:59.216Z,12.21
2023-03-29T11:00:43.790Z,12.51
2023-03-29T11:03:28.492Z,12.55
2023-03-29T11:06:16.714Z,12.94
2023-03-29T11:08:51.319Z,12.97
2023-03-29T11:12:15.469Z,13.20
2023-03-29T11:14:45.577Z,13.34
2023-03-29T11:17:27.566Z,13.49
2023-03-29T11:20:12.499Z,13.75
2023-03-29T11:23:07.335Z,13.84
2023-03-29T11:25:59.229Z,13.92
2023-03-29T11:28:55.145Z,14.07
2023-03-29T11:31:30.898Z,14.21
2023-03-29T11:34:24.832Z,14.15
2023-03-29T11:37:03.760Z,14.48
2023-03-29T11:43:00.488Z,15.07
2023-03-29T11:45:34.637Z,15.23
2023-03-29T11:48:04.963Z,15.43
2023-03-29T11:50:42.218Z,15.61
2023-03-29T11:53:17.024Z,15.04
2023-03-29T11:55:44.736Z,14.95
2023-03-29T11:58:32.267Z,14.69
2023-03-29T12:01:27.191Z,14.75
2023-03-29T12:03:58.858Z,14.63
2023-03-29T12:06:41.483Z,14.23
2023-03-29T12:09:21.970Z,13.96
2023-03-29T12:12:15.525Z,14.05
2023-03-29T12:15:10.877Z,13.91
2023-03-29T12:17:45.786Z,13.56
2023-03-29T12:20:31.524Z,13.49
2023-03-29T12:23:00.894Z,13.23
2023-03-29T12:25:53.094Z,13.25
2023-03-29T12:28:33.363Z,13.19
2023-03-29T12:31:15.257Z,13.22
2023-03-29T12:33:54.387Z,13.26
2023-03-29T12:37:02.082Z,13.11
2023-03-29T12:40:05.174Z,13.18
2023-03-29T12:43:05.130Z,13.17
2023-03-29T12:45:56.031Z,13.41
2023-03-29T12:48:30.089Z,13.68
2023-03-29T12:51:04.393Z,14.01
2023-03-29T12:53:40.961Z,14.39
2023-03-29T12:56:17.311Z,14.66
2023-03-29T12:59:06.303Z,14.92
2023-03-29T13:01:34.488Z,15.14
2023-03-29T13:04:01.470Z,15.07
2023-03-29T13:06:51.685Z,15.07
2023-03-29T13:09:22.296Z,14.95
2023-03-29T13:11:59.537Z,14.82
2023-03-29T13:14:31.863Z,14.78
2023-03-29T13:17:17.672Z,14.67
2023-03-29T13:20:12.546Z,14.48
2023-03-29T13:23:17.635Z,14.42
2023-03-29T13:26:19.785Z,14.29
2023-03-29T13:29:11.716Z,14.22
2023-03-29T13:32:01.858Z,14.08
2023-03-29T13:34:57.745Z,14.21
2023-03-29T13:37:53.175Z,14.13
2023-03-29T13:40:44.453Z,14.34
2023-03-29T13:43:24.393Z,14.38
2023-03-29T13:45:57.156Z,14.39
2023-03-29T13:48:49.030Z,14.27
2023-03-29T13:51:18.701Z,14.09
2023-03-29T13:54:01.861Z,14.03
2023-03-29T13:56:37.173Z,13.86
2023-03-29T13:59:13.481Z,13.70
2023-03-29T14:01:49.385Z,13.58
2023-03-29T14:04:25.571Z,13.48
2023-03-29T14:06:56.634Z,13.45
2023-03-29T14:09:30.285Z,13.36
2023-03-29T14:11:59.899Z,13.39
2023-03-29T14:14:29.641Z,13.38
2023-03-29T14:16:57.234Z,13.40
2023-03-29T14:19:36.648Z,13.47
2023-03-29T14:22:13.902Z,13.50
2023-03-29T14:24:49.251Z,13.66
2023-03-29T14:27:17.615Z,13.81
2023-03-29T14:29:49.654Z,13.91
2023-03-29T14:32:19.040Z,13.95
2023-03-29T14:34:49.853Z,13.86
2023-03-29T14:37:22.857Z,13.86
2023-03-29T14:39:50.745Z,13.78
2023-03-29T14:42:24.534Z,13.78
2023-03-29T14:44:51.812Z,13.75
2023-03-29T14:47:28.264Z,13.83
2023-03-29T14:49:57.048Z,13.77
2023-03-29T14:52:24.963Z,13.97
2023-03-29T14:54:56.708Z,14.03
2023-03-29T14:57:27.401Z,14.09
2023-03-29T15:00:02.709Z,14.20
2023-03-29T15:02:32.343Z,14.17
2023-03-29T15:05:05.611Z,14.26
2023-03-29T15:07:34.653Z,14.22
2023-03-29T15:10:05.124Z,14.15
2023-03-29T15:12:33.539Z,14.28
2023-03-29T15:15:01.464Z,14.23
2023-03-29T15:17:50.941Z,14.18
2023-03-29T15:20:29.165Z,13.93
2023-03-29T15:23:02.615Z,13.85
2023-03-29T15:25:49.113Z,13.79
2023-03-29T15:28:32.644Z,13.74
2023-03-29T15:31:10.321Z,13.67
2023-03-29T15:33:39.768Z,13.58
2023-03-29T15:36:09.303Z,13.59
2023-03-29T15:38:44.014Z,13.67
2023-03-29T15:41:13.577Z,13.71
2023-03-29T15:43:41.459Z,13.63
2023-03-29T15:46:12.404Z,13.59
2023-03-29T15:48:39.629Z,13.52
2023-03-29T15:51:07.569Z,13.49
2023-03-29T15:53:35.995Z,13.33
2023-03-29T15:56:07.401Z,13.35
2023-03-29T15:58:36.242Z,13.23
2023-03-29T16:01:35.710Z,13.14
2023-03-29T16:04:14.338Z,13.18
2023-03-29T16:06:42.439Z,13.11
2023-03-29T16:09:11.906Z,13.02
2023-03-29T16:11:40.979Z,13.01
2023-03-29T16:14:16.646Z,12.97
2023-03-29T16:16:43.516Z,12.90
2023-03-29T16:19:13.032Z,12.88
2023-03-29T16:21:40.681Z,12.80
2023-03-29T16:24:13.674Z,12.78
2023-03-29T16:26:40.750Z,12.67
2023-03-29T16:29:07.567Z,12.66
2023-03-29T16:31:34.528Z,12.59
2023-03-29T16:34:01.538Z,12.49
2023-03-29T16:36:30.541Z,12.47
2023-03-29T16:38:57.988Z,12.45
2023-03-29T16:41:24.827Z,12.41
2023-03-29T16:43:51.816Z,12.34
2023-03-29T16:46:19.153Z,12.32
2023-03-29T16:48:46.451Z,12.25
2023-03-29T16:51:13.357Z,12.16
2023-03-29T16:53:40.647Z,12.04
2023-03-29T16:56:07.978Z,11.90
2023-03-29T16:58:34.826Z,11.76
2023-03-29T17:01:13.403Z,11.57
2023-03-29T17:03:41.076Z,11.42
2023-03-29T17:06:09.236Z,11.30
2023-03-29T17:08:36.925Z,11.12
2023-03-29T17:11:04.707Z,11.00
2023-03-29T17:13:31.640Z,10.95
2023-03-29T17:15:58.768Z,10.92
2023-03-29T17:18:27.168Z,10.86
2023-03-29T17:20:58.891Z,10.79
2023-03-29T17:23:26.563Z,10.74
2023-03-29T17:25:56.976Z,10.70
2023-03-29T17:28:24.519Z,10.66
2023-03-29T17:30:51.573Z,10.60
2023-03-29T17:33:22.488Z,10.53
2023-03-29T17:35:49.824Z,10.46
2023-03-29T17:38:16.781Z,10.40
2023-03-29T17:40:43.627Z,10.34
2023-03-29T17:43:10.472Z,10.30
2023-03-29T17:45:37.260Z,10.24
2023-03-29T17:48:06.231Z,10.20
2023-03-29T17:50:34.622Z,10.16
2023-03-29T17:53:01.425Z,10.12
2023-03-29T17:55:28.403Z,10.09
2023-03-29T17:57:55.338Z,10.06
2023-03-29T18:00:22.492Z,10.03
2023-03-29T18:02:49.554Z,10.03
2023-03-29T18:05:16.625Z,9.99
2023-03-29T18:07:43.810Z,9.96
2023-03-29T18:10:10.963Z,9.95
2023-03-29T18:12:38.083Z,9.94
2023-03-29T18:15:05.317Z,9.90
2023-03-29T18:17:32.339Z,9.86
2023-03-29T18:19:59.436Z,9.83
2023-03-29T18:22:26.203Z,9.83
2023-03-29T18:24:53.718Z,9.81
2023-03-29T18:27:20.975Z,9.78
2023-03-29T18:29:47.946Z,9.76
2023-03-29T18:32:14.823Z,9.74
2023-03-29T18:34:41.760Z,9.70
2023-03-29T18:37:14.541Z,9.69
2023-03-29T18:39:41.795Z,9.68
2023-03-29T18:42:12.103Z,9.66
2023-03-29T18:44:40.650Z,9.64
2023-03-29T18:47:07.470Z,9.61
2023-03-29T18:49:34.635Z,9.59
2023-03-29T18:52:02.146Z,9.56
2023-03-29T18:54:28.944Z,9.53
2023-03-29T18:56:59.430Z,9.50
2023-03-29T18:59:26.621Z,9.44
2023-03-29T19:01:53.479Z,9.41
2023-03-29T19:04:20.335Z,9.38
2023-03-29T19:06:47.837Z,9.36
2023-03-29T19:09:14.891Z,9.34
2023-03-29T19:11:41.763Z,9.32
2023-03-29T19:14:09.304Z,9.30
2023-03-29T19:16:36.371Z,9.30
2023-03-29T19:19:05.757Z,9.27
2023-03-29T19:21:33.171Z,9.25
2023-03-29T19:24:01.024Z,9.21
2023-03-29T19:26:33.598Z,9.20
2023-03-29T19:29:01.314Z,9.16
2023-03-29T19:31:28.822Z,9.14
2023-03-29T19:33:55.948Z,9.10
2023-03-29T19:36:23.877Z,9.07
2023-03-29T19:38:51.675Z,9.04
2023-03-29T19:41:18.766Z,9.01
2023-03-29T19:43:45.549Z,9.00
2023-03-29T19:46:12.896Z,8.97
2023-03-29T19:48:40.585Z,8.92
2023-03-29T19:51:08.062Z,8.87
2023-03-29T19:53:38.459Z,8.87
2023-03-29T19:56:07.548Z,8.74
2023-03-29T19:58:35.591Z,8.66
2023-03-29T20:01:03.132Z,8.71
2023-03-29T20:03:30.286Z,8.73
2023-03-29T20:05:57.280Z,8.77
2023-03-29T20:08:24.914Z,8.88
2023-03-29T20:10:59.615Z,8.97
2023-03-29T20:13:37.497Z,9.10
2023-03-29T20:16:11.605Z,9.22
2023-03-29T20:18:38.998Z,9.32
2023-03-29T20:21:07.294Z,9.41
2023-03-29T20:23:35.561Z,9.47
2023-03-29T20:26:03.244Z,9.41
2023-03-29T20:28:30.122Z,9.39
2023-03-29T20:30:57.250Z,9.37
2023-03-29T20:33:24.388Z,9.39
2023-03-29T20:35:51.247Z,9.40
2023-03-29T20:38:18.301Z,9.40
2023-03-29T20:40:45.119Z,9.40
2023-03-29T20:43:18.549Z,9.42
2023-03-29T20:45:53.641Z,9.46
2023-03-29T20:48:23.754Z,9.46
2023-03-29T20:50:51.491Z,9.45
2023-03-29T20:53:20.736Z,9.44
2023-03-29T20:55:48.266Z,9.35
2023-03-29T20:58:16.184Z,9.29
2023-03-29T21:00:43.654Z,9.22
2023-03-29T21:03:11.197Z,9.10
2023-03-29T21:05:38.999Z,9.02
2023-03-29T21:08:06.104Z,8.94
2023-03-29T21:10:33.139Z,8.89
2023-03-29T21:13:02.637Z,8.77
2023-03-29T21:15:30.803Z,8.73
2023-03-29T21:17:58.204Z,8.65
2023-03-29T21:20:25.371Z,8.60
2023-03-29T21:22:52.178Z,8.53
2023-03-29T21:25:19.466Z,8.47
2023-03-29T21:27:46.549Z,8.42
2023-03-29T21:30:13.901Z,8.38
2023-03-29T21:32:41.268Z,8.35
2023-03-29T21:35:09.148Z,8.32
2023-03-29T21:37:36.126Z,8.29
2023-03-29T21:40:06.006Z,8.24
2023-03-29T21:42:34.068Z,8.21
2023-03-29T21:45:01.164Z,8.07
2023-03-29T21:47:28.613Z,8.03
2023-03-29T21:49:55.402Z,7.97
2023-03-29T21:52:22.425Z,7.89
2023-03-29T21:54:49.224Z,7.83
2023-03-29T21:57:16.293Z,7.76
2023-03-29T21:59:43.272Z,7.70
2023-03-29T22:02:10.565Z,7.62
2023-03-29T22:04:37.862Z,7.54
2023-03-29T22:07:05.914Z,7.46
2023-03-29T22:09:35.316Z,7.41
2023-03-29T22:12:04.136Z,7.41
2023-03-29T22:14:35.196Z,7.42
2023-03-29T22:17:07.970Z,7.42
2023-03-29T22:19:41.848Z,7.43
2023-03-29T22:22:13.532Z,7.43
2023-03-29T22:24:41.434Z,7.44
2023-03-29T22:27:08.582Z,7.40
2023-03-29T22:29:35.479Z,7.37
2023-03-29T22:32:02.329Z,7.30
2023-03-29T22:34:30.146Z,7.22
2023-03-29T22:36:56.950Z,7.14
2023-03-29T22:39:23.762Z,7.04
2023-03-29T22:41:50.861Z,6.91
2023-03-29T22:44:17.720Z,6.80
2023-03-29T22:46:44.496Z,6.69
2023-03-29T22:49:12.798Z,6.58
2023-03-29T22:51:39.559Z,6.52
2023-03-29T22:54:06.918Z,6.42
2023-03-29T22:56:33.823Z,6.30
2023-03-29T22:59:00.694Z,6.20
2023-03-29T23:01:27.491Z,6.09
2023-03-29T23:03:54.374Z,5.98
2023-03-29T23:06:21.162Z,5.87
2023-03-29T23:08:47.949Z,5.71
2023-03-29T23:11:14.758Z,5.59
2023-03-29T23:13:41.563Z,5.46
2023-03-29T23:16:08.429Z,5.37
2023-03-29T23:18:37.457Z,5.30
2023-03-29T23:21:06.149Z,5.25
2023-03-29T23:23:33.677Z,5.16
2023-03-29T23:26:01.735Z,5.05
2023-03-29T23:28:30.701Z,4.94
2023-03-29T23:31:03.508Z,4.86
2023-03-29T23:33:35.973Z,4.77
2023-03-29T23:36:05.746Z,4.71
2023-03-29T23:38:34.871Z,4.65
2023-03-29T23:41:05.016Z,4.64
2023-03-29T23:43:35.046Z,4.65
2023-03-29T23:46:07.641Z,4.65
2023-03-29T23:48:35.042Z,4.71
2023-03-29T23:51:02.988Z,4.68
2023-03-29T23:53:31.537Z,4.72
2023-03-29T23:56:00.462Z,4.74
2023-03-29T23:58:33.186Z,4.75
